createdAt,value
2023-05-14T00:00:28.038Z,31.80
2023-05-14T00:03:19.756Z,25.00
2023-05-14T00:05:52.165Z,24.20
2023-05-14T00:08:23.816Z,30.70
2023-05-14T00:10:56.080Z,26.30
2023-05-14T00:13:28.746Z,31.10
2023-05-14T00:16:00.561Z,31.70
2023-05-14T00:18:32.483Z,29.00
2023-05-14T00:21:04.340Z,27.80
2023-05-14T00:23:36.465Z,18.20
2023-05-14T00:26:08.362Z,29.70
2023-05-14T00:28:40.151Z,27.70
2023-05-14T00:31:11.892Z,24.60
2023-05-14T00:33:43.725Z,29.80
2023-05-14T00:36:15.654Z,24.40
2023-05-14T00:38:47.381Z,25.80
2023-05-14T00:41:19.298Z,30.40
2023-05-14T00:43:51.040Z,23.60
2023-05-14T00:46:22.884Z,26.00
2023-05-14T00:48:56.641Z,30.30
2023-05-14T00:53:58.990Z,28.00
2023-05-14T00:56:30.999Z,30.70
2023-05-14T00:59:02.896Z,21.30
2023-05-14T01:01:34.790Z,30.30
2023-05-14T01:04:08.404Z,25.40
2023-05-14T01:06:48.458Z,29.40
2023-05-14T01:09:26.287Z,25.20
2023-05-14T01:12:06.774Z,34.50
2023-05-14T01:14:45.072Z,25.70
2023-05-14T01:17:20.074Z,25.70
2023-05-14T01:19:53.484Z,28.40
2023-05-14T01:22:25.661Z,27.50
2023-05-14T01:24:57.682Z,29.10
2023-05-14T01:27:36.045Z,29.00
2023-05-14T01:30:15.149Z,25.50
2023-05-14T01:32:49.265Z,29.70
2023-05-14T01:35:23.403Z,29.60
2023-05-14T01:37:57.142Z,29.10
2023-05-14T01:40:30.742Z,27.40
2023-05-14T01:43:03.348Z,29.70
2023-05-14T01:45:37.823Z,29.20
2023-05-14T01:48:09.794Z,32.10
2023-05-14T01:50:41.722Z,27.40
2023-05-14T01:53:13.524Z,33.90
2023-05-14T01:55:46.464Z,23.20
2023-05-14T01:58:19.900Z,28.10
2023-05-14T02:00:51.591Z,26.80
2023-05-14T02:03:23.906Z,30.00
2023-05-14T02:05:55.980Z,30.80
2023-05-14T02:08:27.709Z,28.30
2023-05-14T02:10:59.466Z,24.40
2023-05-14T02:13:31.123Z,27.10
2023-05-14T02:16:03.331Z,23.40
2023-05-14T02:18:35.001Z,28.00
2023-05-14T02:21:07.300Z,27.50
2023-05-14T02:23:41.928Z,27.70
2023-05-14T02:26:14.328Z,26.50
2023-05-14T02:28:46.538Z,27.40
2023-05-14T02:31:19.284Z,24.30
2023-05-14T02:33:51.079Z,21.90
2023-05-14T02:36:22.827Z,17.60
2023-05-14T02:38:54.460Z,26.80
2023-05-14T02:41:26.902Z,22.30
2023-05-14T02:43:58.579Z,24.10
2023-05-14T02:46:31.560Z,24.90
2023-05-14T02:49:03.925Z,23.30
2023-05-14T02:51:36.049Z,24.10
2023-05-14T02:54:08.033Z,26.10
2023-05-14T02:56:39.686Z,23.80
2023-05-14T02:59:11.646Z,24.60
2023-05-14T03:01:43.803Z,25.90
2023-05-14T03:04:16.489Z,29.60
2023-05-14T03:06:48.219Z,29.60
2023-05-14T03:09:19.877Z,28.60
2023-05-14T03:11:52.050Z,34.20
2023-05-14T03:14:23.698Z,25.10
2023-05-14T03:16:55.646Z,34.90
2023-05-14T03:19:27.462Z,28.90
2023-05-14T03:21:59.280Z,29.00
2023-05-14T03:24:31.532Z,31.00
2023-05-14T03:27:03.295Z,25.40
2023-05-14T03:29:35.105Z,23.00
2023-05-14T03:32:08.095Z,32.70
2023-05-14T03:34:39.967Z,28.10
2023-05-14T03:37:12.032Z,27.60
2023-05-14T03:39:43.822Z,34.80
2023-05-14T03:42:15.841Z,21.60
2023-05-14T03:44:47.711Z,34.00
2023-05-14T03:47:20.445Z,27.70
2023-05-14T03:49:52.219Z,29.90
2023-05-14T03:52:24.679Z,28.70
2023-05-14T03:54:56.290Z,31.20
2023-05-14T03:57:27.991Z,28.90
2023-05-14T04:00:01.218Z,28.20
2023-05-14T04:02:33.155Z,32.20
2023-05-14T04:05:05.469Z,19.40
2023-05-14T04:07:37.817Z,28.00
2023-05-14T04:10:11.518Z,29.40
2023-05-14T04:12:44.003Z,29.60
2023-05-14T04:15:15.838Z,29.60
2023-05-14T04:17:48.089Z,31.40
2023-05-14T04:20:20.126Z,29.20
2023-05-14T04:22:51.749Z,43.90
2023-05-14T04:25:24.076Z,28.90
2023-05-14T04:27:55.722Z,30.30
2023-05-14T04:30:27.718Z,30.20
2023-05-14T04:32:59.433Z,27.90
2023-05-14T04:35:31.207Z,24.70
2023-05-14T04:38:03.031Z,29.00
2023-05-14T04:40:34.768Z,24.80
2023-05-14T04:43:06.651Z,29.50
2023-05-14T04:45:38.322Z,27.80
2023-05-14T04:48:11.016Z,25.90
2023-05-14T04:50:43.752Z,23.00
2023-05-14T04:55:45.769Z,27.40
2023-05-14T04:58:17.605Z,25.90
2023-05-14T05:00:49.360Z,29.20
2023-05-14T05:03:21.248Z,36.00
2023-05-14T05:05:53.003Z,23.80
2023-05-14T05:08:24.758Z,26.70
2023-05-14T05:10:56.415Z,26.20
2023-05-14T05:13:28.099Z,25.00
2023-05-14T05:16:00.003Z,27.00
2023-05-14T05:18:32.309Z,28.70
2023-05-14T05:21:04.150Z,28.70
2023-05-14T05:23:36.101Z,28.40
2023-05-14T05:26:07.865Z,28.20
2023-05-14T05:28:40.137Z,25.20
2023-05-14T05:31:12.182Z,26.30
2023-05-14T05:33:44.114Z,25.20
2023-05-14T05:36:15.773Z,28.90
2023-05-14T05:38:47.514Z,27.80
2023-05-14T05:41:19.266Z,25.20
2023-05-14T05:43:51.046Z,36.70
2023-05-14T05:46:22.814Z,24.90
2023-05-14T05:48:55.009Z,23.40
2023-05-14T05:51:26.702Z,23.70
2023-05-14T05:53:58.454Z,30.90
2023-05-14T05:56:30.779Z,24.10
2023-05-14T05:59:04.048Z,26.30
2023-05-14T06:01:36.218Z,22.90
2023-05-14T06:04:08.638Z,20.60
2023-05-14T06:09:11.358Z,24.10
2023-05-14T06:11:43.035Z,25.50
2023-05-14T06:14:14.845Z,25.80
2023-05-14T06:16:46.610Z,27.80
2023-05-14T06:19:18.600Z,28.00
2023-05-14T06:21:50.433Z,29.40
2023-05-14T06:24:22.254Z,25.60
2023-05-14T06:26:54.376Z,29.20
2023-05-14T06:29:26.311Z,24.60
2023-05-14T06:32:05.615Z,31.90
2023-05-14T06:34:37.442Z,26.30
2023-05-14T06:37:09.533Z,25.80
2023-05-14T06:39:44.111Z,27.70
2023-05-14T06:42:15.815Z,20.30
2023-05-14T06:44:47.974Z,21.70
2023-05-14T06:47:20.116Z,26.70
2023-05-14T06:49:55.919Z,21.50
2023-05-14T06:52:27.972Z,26.40
2023-05-14T06:54:59.770Z,32.60
2023-05-14T06:57:35.545Z,16.00
2023-05-14T07:00:10.832Z,25.10
2023-05-14T07:02:42.758Z,18.30
2023-05-14T07:05:14.763Z,20.30
2023-05-14T07:07:46.551Z,17.70
2023-05-14T07:10:18.822Z,16.80
2023-05-14T07:12:51.970Z,22.70
2023-05-14T07:15:23.691Z,21.00
2023-05-14T07:17:55.683Z,19.10
2023-05-14T07:20:27.742Z,18.80
2023-05-14T07:22:59.897Z,16.30
2023-05-14T07:25:32.622Z,14.70
2023-05-14T07:30:34.712Z,19.80
2023-05-14T07:33:07.037Z,15.20
2023-05-14T07:35:39.363Z,13.40
2023-05-14T07:38:11.208Z,14.10
2023-05-14T07:40:43.376Z,22.10
2023-05-14T07:43:15.110Z,12.80
2023-05-14T07:45:48.026Z,14.20
2023-05-14T07:48:19.873Z,13.80
2023-05-14T07:50:52.432Z,15.50
2023-05-14T07:53:24.961Z,12.90
2023-05-14T07:58:27.752Z,9.50
2023-05-14T08:01:01.366Z,12.40
2023-05-14T08:03:33.192Z,10.80
2023-05-14T08:06:05.080Z,18.40
2023-05-14T08:08:36.878Z,10.80
2023-05-14T08:11:09.050Z,14.00
2023-05-14T08:13:41.480Z,7.70
2023-05-14T08:16:13.321Z,9.50
2023-05-14T08:18:45.083Z,13.40
2023-05-14T08:21:16.965Z,12.20
2023-05-14T08:23:48.737Z,8.80
2023-05-14T08:26:21.627Z,9.50
2023-05-14T08:28:53.870Z,12.90
2023-05-14T08:31:25.633Z,8.20
2023-05-14T08:33:57.426Z,8.60
2023-05-14T08:36:29.230Z,10.40
2023-05-14T08:39:01.166Z,10.80
2023-05-14T08:41:33.160Z,14.70
2023-05-14T08:44:13.559Z,8.30
2023-05-14T08:46:45.533Z,8.40
2023-05-14T08:49:30.037Z,12.00
2023-05-14T08:52:02.763Z,14.50
2023-05-14T08:57:06.117Z,9.80
2023-05-14T08:59:38.036Z,15.90
2023-05-14T09:02:15.316Z,14.00
2023-05-14T09:04:48.584Z,18.00
2023-05-14T09:07:21.204Z,13.30
2023-05-14T09:09:54.156Z,12.80
2023-05-14T09:12:26.174Z,6.30
2023-05-14T09:14:57.915Z,10.00
2023-05-14T09:17:29.913Z,14.30
2023-05-14T09:20:02.332Z,6.70
2023-05-14T09:22:35.938Z,7.80
2023-05-14T09:25:11.914Z,8.80
2023-05-14T09:27:43.768Z,11.70
2023-05-14T09:30:17.037Z,9.30
2023-05-14T09:32:50.566Z,6.80
2023-05-14T09:35:24.258Z,8.50
2023-05-14T09:37:56.970Z,11.00
2023-05-14T09:43:01.896Z,12.70
2023-05-14T09:45:33.924Z,10.90
2023-05-14T09:48:06.610Z,9.60
2023-05-14T09:50:44.549Z,12.20
2023-05-14T09:53:17.629Z,6.40
2023-05-14T09:55:50.717Z,13.10
2023-05-14T09:58:22.533Z,6.10
2023-05-14T10:00:58.393Z,9.30
2023-05-14T10:03:31.895Z,11.20
2023-05-14T10:06:08.709Z,8.40
2023-05-14T10:08:44.950Z,8.20
2023-05-14T10:11:21.451Z,13.30
2023-05-14T10:13:59.929Z,12.40
2023-05-14T10:16:35.260Z,7.80
2023-05-14T10:19:09.539Z,5.80
2023-05-14T10:21:46.078Z,8.40
2023-05-14T10:24:19.382Z,12.90
2023-05-14T10:26:51.349Z,7.20
2023-05-14T10:29:32.378Z,9.90
2023-05-14T10:32:07.443Z,8.50
2023-05-14T10:34:42.478Z,7.90
2023-05-14T10:37:15.891Z,12.80
2023-05-14T10:39:50.723Z,11.00
2023-05-14T10:42:25.776Z,8.70
2023-05-14T10:44:59.053Z,7.80
2023-05-14T10:47:32.151Z,9.60
2023-05-14T10:50:07.081Z,10.50
2023-05-14T10:52:39.455Z,10.70
2023-05-14T10:55:14.180Z,11.10
2023-05-14T10:57:47.530Z,20.00
2023-05-14T11:00:20.758Z,8.20
2023-05-14T11:02:57.549Z,9.80
2023-05-14T11:05:29.416Z,10.80
2023-05-14T11:08:04.343Z,8.20
2023-05-14T11:10:36.771Z,6.70
2023-05-14T11:13:08.436Z,9.70
2023-05-14T11:15:47.133Z,9.60
2023-05-14T11:18:30.931Z,8.90
2023-05-14T11:21:03.207Z,12.90
2023-05-14T11:23:35.343Z,33.00
2023-05-14T11:26:08.018Z,34.20
2023-05-14T11:28:39.945Z,179.00
2023-05-14T11:31:12.813Z,150.60
2023-05-14T11:33:45.152Z,65.00
2023-05-14T11:36:16.884Z,31.80
2023-05-14T11:38:52.322Z,71.60
2023-05-14T11:41:24.541Z,23.30
2023-05-14T11:43:56.371Z,17.70
2023-05-14T11:46:30.126Z,26.20
2023-05-14T11:49:04.766Z,27.40
2023-05-14T11:51:37.193Z,17.50
2023-05-14T11:54:08.979Z,10.80
2023-05-14T11:56:40.862Z,10.40
2023-05-14T11:59:13.596Z,7.70
2023-05-14T12:01:48.071Z,8.90
2023-05-14T12:04:22.745Z,12.20
2023-05-14T12:06:55.794Z,15.30
2023-05-14T12:09:28.250Z,7.80
2023-05-14T12:14:30.327Z,7.90
2023-05-14T12:17:04.351Z,8.30
2023-05-14T12:19:40.516Z,8.60
2023-05-14T12:22:14.632Z,6.00
2023-05-14T12:24:55.860Z,9.80
2023-05-14T12:27:29.539Z,7.90
2023-05-14T12:32:41.597Z,9.30
2023-05-14T12:35:13.631Z,10.70
2023-05-14T12:37:45.462Z,10.70
2023-05-14T12:40:17.455Z,8.00
2023-05-14T12:42:49.310Z,8.10
2023-05-14T12:45:21.121Z,10.30
2023-05-14T12:47:54.822Z,12.10
2023-05-14T12:50:27.004Z,9.00
2023-05-14T12:52:58.876Z,12.40
2023-05-14T12:55:30.944Z,11.80
2023-05-14T12:58:04.398Z,11.50
2023-05-14T13:00:39.835Z,6.90
2023-05-14T13:03:12.996Z,7.60
2023-05-14T13:05:46.572Z,8.30
2023-05-14T13:08:21.583Z,6.60
2023-05-14T13:10:53.694Z,13.10
2023-05-14T13:13:26.257Z,11.00
2023-05-14T13:15:58.083Z,9.50
2023-05-14T13:18:29.889Z,7.40
2023-05-14T13:21:04.296Z,7.80
2023-05-14T13:23:36.063Z,11.70
2023-05-14T13:26:08.463Z,8.10
2023-05-14T13:28:40.246Z,11.50
2023-05-14T13:31:14.445Z,10.00
2023-05-14T13:33:46.790Z,9.00
2023-05-14T13:36:18.473Z,11.30
2023-05-14T13:38:50.287Z,11.10
2023-05-14T13:41:23.523Z,9.40
2023-05-14T13:43:55.358Z,7.40
2023-05-14T13:46:27.228Z,8.40
2023-05-14T13:48:59.052Z,9.80
2023-05-14T13:51:31.350Z,14.90
2023-05-14T13:54:03.316Z,7.70
2023-05-14T13:56:35.536Z,8.80
2023-05-14T13:59:07.339Z,10.90
2023-05-14T14:01:39.089Z,11.70
2023-05-14T14:04:10.989Z,12.20
2023-05-14T14:06:43.011Z,17.00
2023-05-14T14:09:14.792Z,8.80
2023-05-14T14:11:46.674Z,8.90
2023-05-14T14:14:19.057Z,16.20
2023-05-14T14:16:50.833Z,9.00
2023-05-14T14:19:22.911Z,10.30
2023-05-14T14:21:54.727Z,9.60
2023-05-14T14:24:26.537Z,11.30
2023-05-14T14:26:58.278Z,13.00
2023-05-14T14:29:31.128Z,10.90
2023-05-14T14:32:03.178Z,13.30
2023-05-14T14:34:35.184Z,10.70
2023-05-14T14:37:07.296Z,11.00
2023-05-14T14:39:39.228Z,7.40
2023-05-14T14:42:11.181Z,7.20
2023-05-14T14:44:42.954Z,12.30
2023-05-14T14:47:14.856Z,6.80
2023-05-14T14:49:48.811Z,9.60
2023-05-14T14:52:20.942Z,6.60
2023-05-14T14:54:53.131Z,6.80
2023-05-14T14:57:25.135Z,11.40
2023-05-14T14:59:56.870Z,7.60
2023-05-14T15:02:28.900Z,6.70
2023-05-14T15:05:01.081Z,7.40
2023-05-14T15:07:33.337Z,9.50
2023-05-14T15:10:05.695Z,5.90
2023-05-14T15:12:37.512Z,4.90
2023-05-14T15:15:12.308Z,6.80
2023-05-14T15:17:44.450Z,8.10
2023-05-14T15:20:16.756Z,7.80
2023-05-14T15:22:49.107Z,10.80
2023-05-14T15:25:21.857Z,8.00
2023-05-14T15:27:54.065Z,8.90
2023-05-14T15:30:25.885Z,5.00
2023-05-14T15:32:58.083Z,5.90
2023-05-14T15:35:29.908Z,7.30
2023-05-14T15:38:01.612Z,9.40
2023-05-14T15:40:35.039Z,8.80
2023-05-14T15:43:07.128Z,8.40
2023-05-14T15:45:38.905Z,5.50
2023-05-14T15:48:10.766Z,6.50
2023-05-14T15:50:43.245Z,7.70
2023-05-14T15:55:46.206Z,8.40
2023-05-14T15:58:17.924Z,13.60
2023-05-14T16:00:50.116Z,7.50
2023-05-14T16:03:21.852Z,6.60
2023-05-14T16:05:53.616Z,12.80
2023-05-14T16:08:25.804Z,5.00
2023-05-14T16:10:57.610Z,7.40
2023-05-14T16:13:29.385Z,8.50
2023-05-14T16:16:01.246Z,5.70
2023-05-14T16:18:33.847Z,8.70
2023-05-14T16:23:36.730Z,7.70
2023-05-14T16:26:09.237Z,7.30
2023-05-14T16:28:42.754Z,8.30
2023-05-14T16:31:15.382Z,7.10
2023-05-14T16:33:47.224Z,5.80
2023-05-14T16:36:19.164Z,7.30
2023-05-14T16:39:06.687Z,8.40
2023-05-14T16:41:39.814Z,10.80
2023-05-14T16:44:11.654Z,7.30
2023-05-14T16:46:43.435Z,4.80
2023-05-14T16:49:15.280Z,6.40
2023-05-14T16:51:48.761Z,7.30
2023-05-14T16:54:20.669Z,6.10
2023-05-14T16:56:52.554Z,6.10
2023-05-14T16:59:25.145Z,8.70
2023-05-14T17:01:57.474Z,4.30
2023-05-14T17:04:29.476Z,7.50
2023-05-14T17:07:02.112Z,5.30
2023-05-14T17:09:34.815Z,8.10
2023-05-14T17:12:07.510Z,6.70
2023-05-14T17:14:39.401Z,5.20
2023-05-14T17:17:11.389Z,12.20
2023-05-14T17:19:43.183Z,5.70
2023-05-14T17:22:15.521Z,6.40
2023-05-14T17:24:47.973Z,7.00
2023-05-14T17:27:19.767Z,8.40
2023-05-14T17:29:51.927Z,4.60
2023-05-14T17:32:23.855Z,8.60
2023-05-14T17:34:56.361Z,3.70
2023-05-14T17:37:28.693Z,8.40
2023-05-14T17:40:00.570Z,3.40
2023-05-14T17:42:32.696Z,8.90
2023-05-14T17:45:05.230Z,6.90
2023-05-14T17:50:10.282Z,9.80
2023-05-14T17:52:44.165Z,7.50
2023-05-14T17:55:17.380Z,8.40
2023-05-14T17:57:49.310Z,4.00
2023-05-14T18:00:21.909Z,5.10
2023-05-14T18:05:24.666Z,7.20
2023-05-14T18:07:58.312Z,12.70
2023-05-14T18:10:30.473Z,11.30
2023-05-14T18:13:02.309Z,4.90
2023-05-14T18:15:34.407Z,4.20
2023-05-14T18:20:37.690Z,6.50
2023-05-14T18:23:09.435Z,6.50
2023-05-14T18:25:41.751Z,4.70
2023-05-14T18:28:13.660Z,4.20
2023-05-14T18:30:45.703Z,11.20
2023-05-14T18:33:18.217Z,4.50
2023-05-14T18:35:49.983Z,8.40
2023-05-14T18:38:21.742Z,10.30
2023-05-14T18:40:53.533Z,9.10
2023-05-14T18:43:26.131Z,5.20
2023-05-14T18:48:28.674Z,5.00
2023-05-14T18:51:01.064Z,6.40
2023-05-14T18:53:33.368Z,7.10
2023-05-14T18:56:05.577Z,12.10
2023-05-14T18:58:37.354Z,5.60
2023-05-14T19:01:09.313Z,5.50
2023-05-14T19:03:42.125Z,6.70
2023-05-14T19:06:14.165Z,5.60
2023-05-14T19:08:46.399Z,10.90
2023-05-14T19:11:18.713Z,5.60
2023-05-14T19:13:50.441Z,15.00
2023-05-14T19:16:23.170Z,11.10
2023-05-14T19:18:55.070Z,10.70
2023-05-14T19:21:26.880Z,7.80
2023-05-14T19:23:58.589Z,9.30
2023-05-14T19:26:30.505Z,5.80
2023-05-14T19:29:02.638Z,10.50
2023-05-14T19:31:34.568Z,6.80
2023-05-14T19:34:06.397Z,6.90
2023-05-14T19:36:38.233Z,7.50
2023-05-14T19:39:10.493Z,13.10
2023-05-14T19:41:42.209Z,10.40
2023-05-14T19:44:13.916Z,7.60
2023-05-14T19:46:45.659Z,10.90
2023-05-14T19:49:17.596Z,10.30
2023-05-14T19:51:49.434Z,7.60
2023-05-14T19:54:21.256Z,15.20
2023-05-14T19:56:53.041Z,8.50
2023-05-14T19:59:24.815Z,6.80
2023-05-14T20:01:56.795Z,10.70
2023-05-14T20:04:28.547Z,6.10
2023-05-14T20:07:00.785Z,12.90
2023-05-14T20:09:32.582Z,8.20
2023-05-14T20:12:07.525Z,10.60
2023-05-14T20:14:39.360Z,12.50
2023-05-14T20:17:11.300Z,16.60
2023-05-14T20:19:43.801Z,15.70
2023-05-14T20:22:16.801Z,15.20
2023-05-14T20:24:48.562Z,9.50
2023-05-14T20:27:20.759Z,10.30
2023-05-14T20:29:54.026Z,11.20
2023-05-14T20:32:26.057Z,11.30
2023-05-14T20:35:01.836Z,8.40
2023-05-14T20:37:34.330Z,11.10
2023-05-14T20:42:38.701Z,9.80
2023-05-14T20:45:13.074Z,9.00
2023-05-14T20:47:45.046Z,12.60
2023-05-14T20:50:16.862Z,14.60
2023-05-14T20:52:48.603Z,13.80
2023-05-14T20:55:21.746Z,12.60
2023-05-14T20:57:53.736Z,13.70
2023-05-14T21:00:25.951Z,10.50
2023-05-14T21:02:59.528Z,15.90
2023-05-14T21:05:31.569Z,15.50
2023-05-14T21:08:03.476Z,15.10
2023-05-14T21:10:35.228Z,16.90
2023-05-14T21:13:08.078Z,18.50
2023-05-14T21:18:10.383Z,10.90
2023-05-14T21:20:42.801Z,11.90
2023-05-14T21:23:14.656Z,12.10
2023-05-14T21:25:46.808Z,12.60
2023-05-14T21:28:18.549Z,13.70
2023-05-14T21:30:53.048Z,14.40
2023-05-14T21:33:25.697Z,17.70
2023-05-14T21:35:57.457Z,12.70
2023-05-14T21:38:29.354Z,13.70
2023-05-14T21:41:01.110Z,14.40
2023-05-14T21:43:32.836Z,14.30
2023-05-14T21:46:04.709Z,20.70
2023-05-14T21:48:36.535Z,13.80
2023-05-14T21:51:08.740Z,11.80
2023-05-14T21:53:43.342Z,13.00
2023-05-14T21:56:15.116Z,13.40
2023-05-14T21:58:47.084Z,13.40
2023-05-14T22:01:18.901Z,9.50
2023-05-14T22:03:51.380Z,22.00
2023-05-14T22:06:23.361Z,16.70
2023-05-14T22:08:55.102Z,11.00
2023-05-14T22:11:26.751Z,12.20
2023-05-14T22:13:58.796Z,9.80
2023-05-14T22:16:30.575Z,10.30
2023-05-14T22:19:02.876Z,13.90
2023-05-14T22:21:35.760Z,14.80
2023-05-14T22:24:08.437Z,13.50
2023-05-14T22:26:40.225Z,11.10
2023-05-14T22:29:11.957Z,10.40
2023-05-14T22:31:43.954Z,13.80
2023-05-14T22:34:16.088Z,10.80
2023-05-14T22:36:48.247Z,13.90
2023-05-14T22:39:20.293Z,8.20
2023-05-14T22:41:55.386Z,10.60
2023-05-14T22:44:29.690Z,12.40
2023-05-14T22:47:01.786Z,8.40
2023-05-14T22:49:33.559Z,11.00
2023-05-14T22:52:05.744Z,11.10
2023-05-14T22:54:37.442Z,10.50
2023-05-14T22:57:11.141Z,8.90
2023-05-14T22:59:42.885Z,11.80
2023-05-14T23:02:14.605Z,8.50
2023-05-14T23:04:46.440Z,10.70
2023-05-14T23:07:18.355Z,8.20
2023-05-14T23:09:50.082Z,9.30
2023-05-14T23:12:21.903Z,11.00
2023-05-14T23:14:53.937Z,10.60
2023-05-14T23:17:26.087Z,8.40
2023-05-14T23:19:57.943Z,9.50
2023-05-14T23:22:29.685Z,7.80
2023-05-14T23:25:01.473Z,9.40
2023-05-14T23:27:33.343Z,8.50
2023-05-14T23:30:05.859Z,13.30
2023-05-14T23:32:37.592Z,10.20
2023-05-14T23:35:11.627Z,10.50
2023-05-14T23:37:47.228Z,14.00
2023-05-14T23:40:19.590Z,10.50
2023-05-14T23:42:51.578Z,11.20
2023-05-14T23:45:26.607Z,9.10
2023-05-14T23:47:59.968Z,13.00
2023-05-14T23:50:32.173Z,12.40
2023-05-14T23:53:03.867Z,5.50
2023-05-14T23:55:35.813Z,10.90
2023-05-14T23:58:07.610Z,7.30
